Time;durP1;ratioP1;P1;durP2;ratioP2;P2;SDS_P1;SDS_P2;PMS_P1;PMS_P2;Temp;Humidity;BMP_temperature;BMP_pressure;BME280_temperature;BME280_humidity;BME280_pressure;Samples;Min_cycle;Max_cycle;Signal;HPM_P1;HPM_P2
2023/04/21 00:00:09;;;;;;;;;21.00;19.50;;;;;11.08;50.81;100420.97;4956270;28;45384;-62
2023/04/21 00:02:38;;;;;;;;;11.00;9.00;;;;;11.08;49.80;100417.47;4956510;28;45409;-62
2023/04/21 00:05:06;;;;;;;;;24.25;22.00;;;;;11.04;50.33;100417.59;4956256;28;45375;-62
2023/04/21 00:07:32;;;;;;;;;20.50;18.25;;;;;10.99;50.88;100416.09;4955602;28;45472;-62
2023/04/21 00:09:58;;;;;;;;;21.00;18.75;;;;;10.92;50.94;100414.59;4956135;28;45552;-62
2023/04/21 00:12:23;;;;;;;;;20.25;19.00;;;;;10.88;51.10;100406.00;4954990;28;45572;-62
2023/04/21 00:14:49;;;;;;;;;26.00;20.75;;;;;10.88;51.25;100413.88;4956318;28;45666;-62
2023/04/21 00:17:14;;;;;;;;;24.75;22.50;;;;;10.89;51.18;100405.06;4955859;28;45484;-61
2023/04/21 00:19:39;;;;;;;;;24.25;22.00;;;;;10.91;51.78;100410.25;4955971;28;47270;-62
2023/04/21 00:22:07;;;;;;;;;26.25;23.50;;;;;10.93;51.29;100408.41;4956221;28;45521;-62
2023/04/21 00:24:32;;;;;;;;;25.00;24.00;;;;;10.89;51.82;100407.69;4956292;28;45597;-62
2023/04/21 00:26:57;;;;;;;;;23.25;22.50;;;;;10.92;51.81;100404.94;4955937;28;45411;-62
2023/04/21 00:29:23;;;;;;;;;25.75;22.75;;;;;10.81;52.02;100401.88;4955950;28;45500;-62
2023/04/21 00:31:48;;;;;;;;;24.50;24.00;;;;;10.77;51.69;100395.00;4956039;28;45396;-62
2023/04/21 00:34:13;;;;;;;;;28.75;26.50;;;;;10.79;51.26;100399.28;4955904;28;45540;-62
2023/04/21 00:36:39;;;;;;;;;25.50;23.75;;;;;10.78;51.73;100397.59;4955614;28;46124;-62
2023/04/21 00:39:04;;;;;;;;;27.50;23.75;;;;;10.77;52.71;100393.25;4955916;28;45328;-62
2023/04/21 00:41:30;;;;;;;;;22.00;21.50;;;;;10.79;52.47;100386.13;4956064;28;45359;-62
2023/04/21 00:44:08;;;;;;;;;22.25;20.75;;;;;10.77;52.31;100369.59;4955798;28;45525;-62
2023/04/21 00:46:35;;;;;;;;;22.75;21.75;;;;;10.76;51.80;100373.09;4955635;28;45497;-62
2023/04/21 00:49:04;;;;;;;;;25.00;25.00;;;;;10.77;52.24;100361.69;4955620;28;45429;-62
2023/04/21 00:51:32;;;;;;;;;26.25;24.50;;;;;10.79;52.05;100375.63;4956150;28;45419;-62
2023/04/21 00:53:59;;;;;;;;;25.25;23.50;;;;;10.77;52.49;100372.22;4955508;28;45592;-61
2023/04/21 00:56:25;;;;;;;;;22.25;20.00;;;;;10.77;52.03;100361.69;4955239;28;45462;-61
2023/04/21 00:58:51;;;;;;;;;26.25;25.25;;;;;10.74;52.30;100369.69;4955456;28;45372;-62
2023/04/21 01:01:36;;;;;;;;;27.00;24.75;;;;;10.73;52.65;100365.34;4955587;28;45466;-62
2023/04/21 01:04:03;;;;;;;;;27.00;24.25;;;;;10.71;52.16;100361.91;4955394;28;45515;-63
2023/04/21 01:06:31;;;;;;;;;25.25;24.75;;;;;10.72;52.58;100363.66;4958391;28;46166;-62
2023/04/21 01:08:56;;;;;;;;;27.00;26.75;;;;;10.72;52.62;100355.75;4957962;28;45492;-62
2023/04/21 01:11:22;;;;;;;;;25.75;23.50;;;;;10.74;52.44;100353.03;4958683;28;45396;-61
2023/04/21 01:13:47;;;;;;;;;27.25;25.75;;;;;10.76;52.93;100349.44;4958982;28;45395;-62
2023/04/21 01:16:17;;;;;;;;;23.00;21.25;;;;;10.75;52.29;100347.75;4958410;28;55815;-61
2023/04/21 01:18:43;;;;;;;;;24.50;23.75;;;;;10.75;52.65;100347.75;4958760;28;45603;-61
2023/04/21 01:21:10;;;;;;;;;26.00;24.50;;;;;10.68;52.76;100346.25;4958645;28;45410;-61
2023/04/21 01:23:35;;;;;;;;;28.75;27.50;;;;;10.63;52.91;100344.72;4958764;28;45547;-62
2023/04/21 01:26:00;;;;;;;;;23.25;23.25;;;;;10.65;53.06;100346.38;4958471;28;48084;-62
2023/04/21 01:28:26;;;;;;;;;28.25;28.00;;;;;10.65;52.87;100338.50;4957917;28;59786;-62
2023/04/21 01:30:51;;;;;;;;;22.75;22.00;;;;;10.63;52.76;100342.94;4958943;28;45395;-61
2023/04/21 01:33:19;;;;;;;;;28.50;25.00;;;;;10.64;52.96;100341.16;4958475;28;45383;-62
2023/04/21 01:35:45;;;;;;;;;25.25;24.00;;;;;10.64;53.03;100342.06;4958468;28;46013;-62
2023/04/21 01:38:11;;;;;;;;;26.75;26.25;;;;;10.58;53.25;100332.59;4958263;28;45589;-62
2023/04/21 01:40:37;;;;;;;;;31.00;28.25;;;;;10.59;53.43;100341.38;4958307;28;45458;-62
2023/04/21 01:43:02;;;;;;;;;29.25;25.50;;;;;10.61;52.75;100343.03;4958407;28;45585;-61
2023/04/21 01:45:29;;;;;;;;;29.25;26.00;;;;;10.60;52.88;100335.19;4958391;28;45403;-62
2023/04/21 01:47:54;;;;;;;;;24.50;23.25;;;;;10.64;53.39;100338.53;4958214;28;45403;-62
2023/04/21 01:50:20;;;;;;;;;28.75;25.25;;;;;10.63;53.41;100329.81;4958238;28;45419;-62
2023/04/21 01:52:45;;;;;;;;;22.50;22.25;;;;;10.63;53.26;100321.91;4957105;28;45441;-62
2023/04/21 01:55:10;;;;;;;;;23.25;22.25;;;;;10.65;53.40;100327.13;4957870;28;47910;-61
2023/04/21 01:57:36;;;;;;;;;30.25;26.50;;;;;10.66;53.31;100324.41;4958179;28;45447;-62
2023/04/21 02:00:02;;;;;;;;;24.00;22.75;;;;;10.60;53.35;100317.63;4958364;28;45409;-62
2023/04/21 02:02:28;;;;;;;;;32.00;29.75;;;;;10.56;53.85;100318.69;4958061;28;45596;-62
2023/04/21 02:04:53;;;;;;;;;35.50;31.50;;;;;10.48;53.67;100309.41;4958043;28;46111;-62
2023/04/21 02:07:19;;;;;;;;;29.75;29.00;;;;;10.52;53.50;100313.59;4958468;28;45506;-62
2023/04/21 02:09:45;;;;;;;;;32.00;27.75;;;;;10.53;53.92;100310.94;4958231;28;45451;-62
2023/04/21 02:12:11;;;;;;;;;28.50;27.50;;;;;10.51;53.84;100306.66;4958048;28;45473;-62
2023/04/21 02:14:37;;;;;;;;;32.75;29.25;;;;;10.52;54.21;100309.19;4957771;28;49770;-63
2023/04/21 02:17:02;;;;;;;;;28.50;27.75;;;;;10.56;53.67;100315.22;4957747;28;45600;-62
2023/04/21 02:19:28;;;;;;;;;26.50;26.50;;;;;10.54;53.61;100309.16;4957843;28;45518;-62
2023/04/21 02:21:54;;;;;;;;;26.50;24.50;;;;;10.57;53.88;100309.88;4958084;28;45348;-62
2023/04/21 02:24:19;;;;;;;;;24.25;23.25;;;;;10.58;53.83;100308.94;4957766;28;46166;-62
2023/04/21 02:26:45;;;;;;;;;27.50;25.75;;;;;10.49;53.82;100295.31;4957597;28;45425;-62
2023/04/21 02:29:10;;;;;;;;;29.00;26.75;;;;;10.53;53.73;100300.41;4957942;28;45403;-62
2023/04/21 02:31:35;;;;;;;;;35.25;32.25;;;;;10.56;54.03;100305.53;4957532;28;45379;-62
2023/04/21 02:34:01;;;;;;;;;32.00;31.25;;;;;10.51;53.88;100299.59;4956149;28;56452;-62
2023/04/21 02:36:26;;;;;;;;;29.00;24.50;;;;;10.48;53.88;100293.63;4957624;28;45438;-62
2023/04/21 02:38:52;;;;;;;;;29.50;27.50;;;;;10.54;53.79;100303.88;4957663;28;45427;-63
2023/04/21 02:41:17;;;;;;;;;29.50;28.75;;;;;10.53;54.19;100296.91;4957667;28;45557;-62
2023/04/21 02:43:42;;;;;;;;;28.00;25.75;;;;;10.56;53.92;100300.28;4957228;28;45361;-62
2023/04/21 02:46:08;;;;;;;;;31.00;28.25;;;;;10.51;54.11;100293.50;4956956;28;60070;-62
2023/04/21 02:48:36;;;;;;;;;31.75;28.25;;;;;10.50;54.31;100297.03;4957471;28;45464;-62
2023/04/21 02:51:03;;;;;;;;;31.75;29.50;;;;;10.50;53.80;100294.38;4957430;28;45596;-61
2023/04/21 02:53:28;;;;;;;;;32.50;31.00;;;;;10.49;53.54;100290.91;4957070;28;46524;-62
2023/04/21 02:55:54;;;;;;;;;28.75;27.75;;;;;10.50;53.70;100286.50;4957168;28;45443;-62
2023/04/21 02:58:19;;;;;;;;;35.00;27.75;;;;;10.53;54.12;100292.50;4957206;28;45437;-62
2023/04/21 03:00:45;;;;;;;;;31.50;29.75;;;;;10.54;54.17;100285.47;4957143;28;45427;-62
2023/04/21 03:03:10;;;;;;;;;31.50;27.25;;;;;10.57;53.63;100283.56;4957163;28;45492;-63
2023/04/21 03:05:35;;;;;;;;;30.75;29.50;;;;;10.56;53.95;100283.66;4957088;28;45494;-62
2023/04/21 03:08:01;;;;;;;;;22.75;21.00;;;;;10.54;53.62;100274.97;4957899;28;45403;-62
2023/04/21 03:10:26;;;;;;;;;30.00;27.50;;;;;10.52;53.65;100274.16;4956922;28;45585;-62
2023/04/21 03:12:52;;;;;;;;;31.00;28.25;;;;;10.50;53.86;100273.34;4956806;28;52466;-62
2023/04/21 03:15:18;;;;;;;;;27.25;26.00;;;;;10.51;53.56;100267.19;4957173;28;45461;-62
2023/04/21 03:17:44;;;;;;;;;30.00;28.25;;;;;10.50;54.17;100271.56;4957050;28;45529;-61
2023/04/21 03:20:10;;;;;;;;;27.75;24.75;;;;;10.51;54.33;100272.47;4956915;28;45423;-62
2023/04/21 03:22:36;;;;;;;;;29.25;28.50;;;;;10.52;53.88;100266.28;4956905;28;46263;-62
2023/04/21 03:25:03;;;;;;;;;33.50;31.25;;;;;10.56;53.50;100273.97;4956506;28;45450;-61
2023/04/21 03:27:29;;;;;;;;;30.25;27.00;;;;;10.58;53.76;100266.00;4955644;28;45349;-62
2023/04/21 03:29:54;;;;;;;;;30.75;30.00;;;;;10.59;53.25;100265.97;4956293;28;45419;-63
2023/04/21 03:32:19;;;;;;;;;27.50;24.50;;;;;10.61;53.37;100271.16;4956895;28;46357;-63
2023/04/21 03:34:45;;;;;;;;;27.50;27.25;;;;;10.61;53.33;100265.88;4956683;28;45358;-63
2023/04/21 03:37:10;;;;;;;;;23.75;23.75;;;;;10.60;53.38;100264.19;4957003;28;46005;-63
2023/04/21 03:39:35;;;;;;;;;20.50;20.50;;;;;10.59;53.32;100263.34;4956186;28;57586;-62
2023/04/21 03:42:01;;;;;;;;;23.25;23.25;;;;;10.58;53.15;100266.00;4956018;28;51853;-62
2023/04/21 03:44:27;;;;;;;;;26.75;23.00;;;;;10.58;54.03;100263.38;4956744;28;45513;-62
2023/04/21 03:46:53;;;;;;;;;23.50;22.75;;;;;10.59;53.91;100258.06;4956526;28;45400;-62
2023/04/21 03:49:19;;;;;;;;;26.50;24.25;;;;;10.54;53.31;100262.66;4956550;28;45445;-62
2023/04/21 03:51:44;;;;;;;;;31.50;28.50;;;;;10.55;53.90;100258.25;4956255;28;45532;-63
2023/04/21 03:54:10;;;;;;;;;24.50;23.00;;;;;10.56;53.38;100258.19;4956117;28;53011;-61
2023/04/21 03:56:35;;;;;;;;;30.25;25.50;;;;;10.54;54.13;100249.50;4956395;28;45650;-62
2023/04/21 03:59:00;;;;;;;;;28.50;26.75;;;;;10.56;53.46;100260.84;4955008;28;45429;-63
2023/04/21 04:01:26;;;;;;;;;22.50;22.00;;;;;10.53;53.70;100244.31;4956111;28;46629;-63
2023/04/21 04:03:51;;;;;;;;;26.50;25.00;;;;;10.56;53.46;100241.56;4956430;28;45434;-63
2023/04/21 04:06:16;;;;;;;;;21.00;19.75;;;;;10.51;53.94;100235.66;4957191;28;45415;-62
2023/04/21 04:08:41;;;;;;;;;24.75;22.50;;;;;10.53;53.18;100245.19;4956280;28;45499;-62
2023/04/21 04:11:07;;;;;;;;;27.75;27.00;;;;;10.52;53.79;100243.47;4956184;28;45445;-62
2023/04/21 04:13:32;;;;;;;;;27.00;26.00;;;;;10.45;53.96;100234.13;4956285;28;45481;-62
2023/04/21 04:15:57;;;;;;;;;33.50;27.25;;;;;10.49;53.78;100242.72;4955529;28;58547;-62
2023/04/21 04:18:23;;;;;;;;;24.50;23.25;;;;;10.47;54.36;100240.16;4956467;28;45386;-62
2023/04/21 04:20:48;;;;;;;;;29.50;28.50;;;;;10.46;53.91;100242.88;4955774;28;45944;-63
2023/04/21 04:23:14;;;;;;;;;26.00;24.00;;;;;10.46;54.06;100242.88;4956172;28;45397;-62
2023/04/21 04:25:39;;;;;;;;;28.00;25.75;;;;;10.44;54.30;100242.91;4956483;28;45410;-62
2023/04/21 04:28:06;;;;;;;;;24.50;23.75;;;;;10.42;54.67;100239.47;4956049;28;45443;-63
2023/04/21 04:30:32;;;;;;;;;29.00;27.75;;;;;10.41;54.17;100240.41;4955113;28;46405;-62
2023/04/21 04:32:57;;;;;;;;;33.00;28.25;;;;;10.41;53.94;100234.31;4955925;28;45395;-62
2023/04/21 04:35:23;;;;;;;;;31.50;28.00;;;;;10.38;54.20;100237.91;4956101;28;45660;-62
2023/04/21 04:37:49;;;;;;;;;29.50;28.25;;;;;10.43;54.60;100235.97;4956408;28;45620;-63
2023/04/21 04:40:14;;;;;;;;;29.25;29.25;;;;;10.42;54.44;100231.59;4957705;28;45585;-63
2023/04/21 04:42:41;;;;;;;;;25.50;23.50;;;;;10.42;55.36;100243.88;4959401;28;45554;-62
2023/04/21 04:45:08;;;;;;;;;29.25;26.00;;;;;10.42;54.37;100236.84;4959375;28;45411;-63
2023/04/21 04:47:34;;;;;;;;;24.75;22.75;;;;;10.44;54.61;100242.06;4959289;28;45507;-62
2023/04/21 04:49:59;;;;;;;;;24.75;24.00;;;;;10.42;54.44;100231.59;4958834;28;45461;-63
2023/04/21 04:52:25;;;;;;;;;29.75;28.00;;;;;10.42;55.12;100228.13;4958973;28;48221;-63
2023/04/21 04:54:50;;;;;;;;;26.50;26.50;;;;;10.45;55.00;100242.00;4959303;28;45508;-62
2023/04/21 04:57:15;;;;;;;;;32.00;25.75;;;;;10.48;55.15;100236.63;4958835;28;45669;-62
2023/04/21 04:59:41;;;;;;;;;31.50;29.00;;;;;10.46;55.56;100234.97;4959038;28;45446;-62
2023/04/21 05:02:06;;;;;;;;;31.25;29.50;;;;;10.48;55.27;100236.63;4958868;28;45356;-62
2023/04/21 05:04:33;;;;;;;;;29.75;27.50;;;;;10.47;55.08;100234.03;4959280;28;45439;-62
2023/04/21 05:06:58;;;;;;;;;27.50;26.25;;;;;10.48;55.31;100236.63;4959499;28;45509;-62
2023/04/21 05:09:24;;;;;;;;;30.75;27.75;;;;;10.46;55.23;100233.19;4958791;28;46033;-62
2023/04/21 05:11:49;;;;;;;;;31.00;30.00;;;;;10.37;55.43;100239.69;4958719;28;45553;-62
2023/04/21 05:14:14;;;;;;;;;30.25;30.25;;;;;10.39;55.82;100237.84;4958881;28;45378;-62
2023/04/21 05:16:42;;;;;;;;;32.50;28.50;;;;;10.42;56.03;100236.00;4958890;28;45616;-61
2023/04/21 05:19:07;;;;;;;;;31.25;30.00;;;;;10.45;55.89;100233.25;4958617;28;46235;-62
2023/04/21 05:21:33;;;;;;;;;30.50;30.25;;;;;10.43;55.75;100229.84;4958440;28;45510;-62
2023/04/21 05:23:58;;;;;;;;;29.00;28.00;;;;;10.43;55.68;100227.22;4958445;28;45417;-62
2023/04/21 05:26:26;;;;;;;;;33.50;30.00;;;;;10.45;55.63;100235.88;4958699;28;45413;-62
2023/04/21 05:28:52;;;;;;;;;29.00;24.50;;;;;10.42;55.63;100241.25;4958696;28;45512;-62
2023/04/21 05:31:17;;;;;;;;;28.25;25.00;;;;;10.43;55.73;100240.38;4958381;28;45544;-62
2023/04/21 05:33:42;;;;;;;;;27.75;25.75;;;;;10.44;55.69;100228.91;4958772;28;45392;-62
2023/04/21 05:36:09;;;;;;;;;27.25;25.75;;;;;10.46;55.45;100227.94;4958613;28;45371;-62
2023/04/21 05:38:35;;;;;;;;;24.75;24.75;;;;;10.47;55.60;100234.03;4958291;28;46175;-62
2023/04/21 05:41:00;;;;;;;;;27.50;23.75;;;;;10.44;55.23;100237.66;4958282;28;45613;-62
2023/04/21 05:43:26;;;;;;;;;22.50;21.75;;;;;10.44;55.34;100234.19;4958446;28;45403;-62
2023/04/21 05:45:51;;;;;;;;;29.25;24.75;;;;;10.47;55.43;100236.69;4958440;28;45700;-62
2023/04/21 05:48:17;;;;;;;;;24.50;22.00;;;;;10.47;54.98;100237.53;4957946;28;46015;-63
2023/04/21 05:50:42;;;;;;;;;25.00;23.75;;;;;10.48;55.16;100241.88;4956391;28;45467;-62
2023/04/21 05:53:07;;;;;;;;;23.75;19.50;;;;;10.50;55.87;100240.03;4958040;28;45387;-62
2023/04/21 05:55:34;;;;;;;;;27.25;27.00;;;;;10.49;55.74;100240.97;4957565;28;59222;-62
2023/04/21 05:57:59;;;;;;;;;31.00;30.00;;;;;10.50;55.75;100240.03;4957932;28;46253;-62
2023/04/21 06:00:24;;;;;;;;;31.75;28.00;;;;;10.42;56.02;100230.75;4957748;28;45482;-62
2023/04/21 06:02:50;;;;;;;;;29.75;28.50;;;;;10.47;55.75;100241.94;4958446;28;45724;-62
2023/04/21 06:05:15;;;;;;;;;28.50;28.00;;;;;10.47;56.00;100234.03;4958161;28;45359;-62
2023/04/21 06:07:40;;;;;;;;;35.00;30.75;;;;;10.48;55.77;100233.16;4958447;28;45946;-62
2023/04/21 06:10:06;;;;;;;;;29.00;25.75;;;;;10.47;56.05;100241.94;4957995;28;45544;-62
2023/04/21 06:12:32;;;;;;;;;36.75;28.75;;;;;10.48;56.31;100235.78;4957758;28;45521;-61
2023/04/21 06:14:58;;;;;;;;;23.75;22.50;;;;;10.47;56.46;100224.38;4957717;28;50271;-62
2023/04/21 06:17:23;;;;;;;;;26.75;26.75;;;;;10.50;55.88;100231.28;4957751;28;46121;-62
2023/04/21 06:19:52;;;;;;;;;31.00;29.50;;;;;10.46;55.99;100235.81;4957390;28;45601;-62
2023/04/21 06:22:23;;;;;;;;;30.25;28.25;;;;;10.48;55.65;100234.00;4957926;28;45512;-62
2023/04/21 06:24:49;;;;;;;;;32.00;29.75;;;;;10.51;55.99;100231.25;4957603;28;45488;-63
2023/04/21 06:27:15;;;;;;;;;27.25;25.00;;;;;10.46;55.77;100230.56;4957544;28;46079;-62
2023/04/21 06:29:44;;;;;;;;;23.50;23.50;;;;;10.47;55.26;100234.91;4957741;28;45434;-62
2023/04/21 06:32:10;;;;;;;;;28.25;26.50;;;;;10.39;55.45;100243.09;4956547;28;45420;-62
2023/04/21 06:34:36;;;;;;;;;32.25;28.75;;;;;10.37;55.22;100238.84;4957475;28;45447;-62
2023/04/21 06:37:01;;;;;;;;;34.75;30.00;;;;;10.35;55.89;100232.78;4957292;28;46254;-62
2023/04/21 06:39:27;;;;;;;;;28.00;27.00;;;;;10.36;56.17;100227.44;4957556;28;45446;-62
2023/04/21 06:41:52;;;;;;;;;26.25;26.00;;;;;10.45;56.11;100233.25;4957500;28;45292;-61
2023/04/21 06:44:18;;;;;;;;;25.50;24.25;;;;;10.47;55.79;100234.03;4957650;28;45570;-63
2023/04/21 06:46:43;;;;;;;;;20.00;20.00;;;;;10.47;56.11;100224.38;4957380;28;46550;-62
2023/04/21 06:49:09;;;;;;;;;32.00;29.00;;;;;10.51;55.25;100222.50;4957203;28;45447;-62
2023/04/21 06:51:34;;;;;;;;;31.25;30.25;;;;;10.53;55.42;100224.16;4957423;28;45455;-62
2023/04/21 06:54:00;;;;;;;;;32.25;30.00;;;;;10.56;55.87;100224.03;4957270;28;45568;-62
2023/04/21 06:56:26;;;;;;;;;28.50;27.25;;;;;10.62;55.87;100222.91;4957116;28;45926;-62
2023/04/21 06:58:52;;;;;;;;;30.75;29.00;;;;;10.66;55.66;100221.84;4957074;28;45384;-61
2023/04/21 07:01:17;;;;;;;;;34.25;32.00;;;;;10.64;55.81;100226.34;4957399;28;45433;-62
2023/04/21 07:03:42;;;;;;;;;37.00;28.75;;;;;10.66;55.65;100232.38;4955912;28;45560;-62
2023/04/21 07:06:08;;;;;;;;;33.50;28.50;;;;;10.66;55.08;100227.09;4957121;28;45423;-62
2023/04/21 07:08:33;;;;;;;;;29.00;28.75;;;;;10.69;55.95;100231.38;4957617;28;48129;-62
2023/04/21 07:10:58;;;;;;;;;29.75;26.25;;;;;10.70;55.23;100226.06;4956982;28;45371;-62
2023/04/21 07:13:24;;;;;;;;;31.75;30.75;;;;;10.73;54.82;100222.47;4957166;28;45324;-62
2023/04/21 07:15:49;;;;;;;;;31.00;28.25;;;;;10.70;55.26;100222.59;4956606;28;45440;-62
2023/04/21 07:18:15;;;;;;;;;34.25;32.00;;;;;10.70;54.81;100218.19;4956857;28;45382;-62
2023/04/21 07:20:40;;;;;;;;;26.50;26.00;;;;;10.75;54.88;100221.47;4956787;28;45458;-62
2023/04/21 07:23:05;;;;;;;;;34.75;32.25;;;;;10.75;55.18;100218.84;4956602;28;45493;-62
2023/04/21 07:25:31;;;;;;;;;34.75;33.00;;;;;10.76;54.97;100211.81;4956699;28;46194;-62
2023/04/21 07:27:56;;;;;;;;;31.75;31.50;;;;;10.80;54.75;100210.75;4956724;28;45455;-62
2023/04/21 07:30:21;;;;;;;;;26.00;26.00;;;;;10.84;55.16;100209.69;4956971;28;45422;-62
2023/04/21 07:32:47;;;;;;;;;39.25;33.25;;;;;10.87;54.60;100211.34;4956950;28;45489;-61
2023/04/21 07:35:12;;;;;;;;;33.50;31.75;;;;;10.91;54.70;100205.91;4956367;28;45865;-62
2023/04/21 07:37:39;;;;;;;;;32.50;28.50;;;;;10.94;55.07;100200.50;4956564;28;45492;-62
2023/04/21 07:40:06;;;;;;;;;33.00;31.00;;;;;10.95;55.23;100207.47;4956603;28;45466;-63
2023/04/21 07:42:31;;;;;;;;;35.50;32.00;;;;;10.96;54.66;100205.69;4956707;28;45467;-62
2023/04/21 07:44:56;;;;;;;;;26.00;24.00;;;;;10.96;54.69;100203.03;4955786;28;56602;-62
2023/04/21 07:47:22;;;;;;;;;39.00;34.25;;;;;10.91;55.03;100203.28;4956506;28;45424;-62
2023/04/21 07:49:47;;;;;;;;;34.00;30.75;;;;;10.90;54.79;100195.44;4956860;28;45450;-62
2023/04/21 07:52:12;;;;;;;;;30.75;28.75;;;;;10.98;54.29;100209.94;4956414;28;45402;-62
2023/04/21 07:54:38;;;;;;;;;24.75;24.00;;;;;10.99;54.58;100205.56;4956186;28;45489;-62
2023/04/21 07:57:03;;;;;;;;;29.00;25.75;;;;;11.01;53.62;100209.81;4956148;28;45410;-62
2023/04/21 07:59:29;;;;;;;;;26.75;25.75;;;;;10.99;54.09;100190.63;4956096;28;45385;-62
2023/04/21 08:01:54;;;;;;;;;30.75;28.25;;;;;11.02;53.62;100195.75;4956170;28;45346;-62
2023/04/21 08:04:19;;;;;;;;;28.50;24.00;;;;;11.09;53.13;100198.97;4956138;28;46031;-61
2023/04/21 08:06:45;;;;;;;;;29.25;24.75;;;;;11.05;52.47;100189.50;4956872;28;45393;-61
2023/04/21 08:09:10;;;;;;;;;27.25;26.75;;;;;11.08;52.56;100199.91;4955003;28;45377;-62
2023/04/21 08:11:35;;;;;;;;;27.25;25.50;;;;;11.09;52.11;100195.47;4956216;28;45391;-62
2023/04/21 08:14:01;;;;;;;;;32.75;30.00;;;;;11.11;52.86;100193.66;4955446;28;58039;-62
2023/04/21 08:16:26;;;;;;;;;26.50;24.75;;;;;11.12;52.07;100195.34;4956167;28;45435;-61
2023/04/21 08:18:51;;;;;;;;;26.75;26.75;;;;;11.11;51.75;100193.66;4956215;28;45418;-61
2023/04/21 08:21:17;;;;;;;;;24.75;22.75;;;;;11.11;51.91;100183.13;4956211;28;45443;-61
2023/04/21 08:23:42;;;;;;;;;28.25;26.50;;;;;11.14;51.67;100196.13;4955985;28;45451;-61
2023/04/21 08:26:08;;;;;;;;;23.75;20.50;;;;;11.15;52.24;100190.81;4955917;28;45470;-62
2023/04/21 08:28:33;;;;;;;;;26.00;24.00;;;;;11.11;51.66;100181.34;4955044;28;45534;-62
2023/04/21 08:31:00;;;;;;;;;24.50;24.50;;;;;11.17;51.65;100196.84;4956013;28;45696;-62
2023/04/21 08:33:26;;;;;;;;;17.75;17.75;;;;;11.16;50.72;100184.63;4955750;28;45403;-63
2023/04/21 08:35:51;;;;;;;;;20.00;19.00;;;;;11.18;51.27;100190.69;4955605;28;45450;-61
2023/04/21 08:38:17;;;;;;;;;20.50;20.50;;;;;11.23;51.76;100183.44;4955253;28;61093;-60
2023/04/21 08:40:42;;;;;;;;;23.00;23.00;;;;;11.30;51.63;100184.00;4955856;28;45419;-62
2023/04/21 08:43:08;;;;;;;;;21.50;18.50;;;;;11.37;50.06;100190.72;4955473;28;45439;-61
2023/04/21 08:45:34;;;;;;;;;22.00;21.00;;;;;11.39;49.92;100194.13;4955826;28;45523;-61
2023/04/21 08:48:01;;;;;;;;;18.00;18.00;;;;;11.35;50.46;100196.97;4955844;28;45394;-61
2023/04/21 08:50:30;;;;;;;;;31.25;23.00;;;;;11.37;50.21;100193.34;4955595;28;45550;-61
2023/04/21 08:52:56;;;;;;;;;22.50;20.00;;;;;11.34;51.69;100182.06;4955340;28;45458;-61
2023/04/21 08:55:29;;;;;;;;;25.50;25.00;;;;;11.39;50.62;100198.53;4955425;28;45571;-61
2023/04/21 08:57:54;;;;;;;;;27.75;24.75;;;;;11.42;51.14;100188.72;4955446;28;45502;-61
2023/04/21 09:00:20;;;;;;;;;22.25;22.00;;;;;11.42;51.40;100194.00;4955454;28;45546;-62
2023/04/21 09:03:00;;;;;;;;;27.50;26.00;;;;;11.47;50.46;100193.75;4955536;28;45519;-61
2023/04/21 09:05:27;;;;;;;;;28.25;22.50;;;;;11.48;50.85;100195.50;4955406;28;45581;-62
2023/04/21 09:08:12;;;;;;;;;25.00;22.75;;;;;11.46;49.70;100184.16;4956213;28;45433;-61
2023/04/21 09:10:48;;;;;;;;;19.25;19.25;;;;;11.45;50.02;100193.84;4955388;28;45546;-62
2023/04/21 09:13:14;;;;;;;;;18.25;17.50;;;;;11.46;50.28;100185.00;4955195;28;45447;-62
2023/04/21 09:15:41;;;;;;;;;24.75;22.75;;;;;11.49;49.99;100182.22;4953984;28;45485;-62
2023/04/21 09:18:18;;;;;;;;;25.75;24.75;;;;;11.50;49.72;100191.84;4955487;28;45543;-62
2023/04/21 09:20:45;;;;;;;;;27.00;25.75;;;;;11.52;49.82;100196.19;4955188;28;45618;-61
2023/04/21 09:23:11;;;;;;;;;22.00;20.50;;;;;11.44;49.92;100183.38;4955089;28;45451;-61
2023/04/21 09:25:38;;;;;;;;;22.50;22.00;;;;;11.52;50.02;100194.41;4955130;28;45483;-62
2023/04/21 09:28:08;;;;;;;;;31.00;28.75;;;;;11.50;50.25;100199.75;4957982;28;45593;-62
2023/04/21 09:30:35;;;;;;;;;28.75;26.50;;;;;11.56;50.14;100193.34;4957342;28;45474;-62
2023/04/21 09:33:00;;;;;;;;;27.00;22.50;;;;;11.58;48.88;100204.69;4958423;28;45508;-62
2023/04/21 09:35:31;;;;;;;;;23.50;22.50;;;;;11.60;48.85;100191.44;4958356;28;45421;-61
2023/04/21 09:37:57;;;;;;;;;20.50;19.50;;;;;11.61;48.52;100198.41;4958745;28;45442;-61
2023/04/21 09:40:22;;;;;;;;;25.25;23.25;;;;;11.65;49.53;100195.56;4958113;28;46196;-60
2023/04/21 09:42:49;;;;;;;;;24.50;24.50;;;;;11.71;48.65;100192.66;4958173;28;46044;-61
2023/04/21 09:45:15;;;;;;;;;29.00;24.50;;;;;11.77;48.07;100188.88;4958306;28;45411;-61
2023/04/21 09:47:41;;;;;;;;;28.50;25.50;;;;;11.80;47.95;100190.53;4958423;28;45514;-62
2023/04/21 09:50:10;;;;;;;;;25.25;21.00;;;;;11.82;49.02;100188.63;4958084;28;45545;-61
2023/04/21 09:52:37;;;;;;;;;17.50;17.50;;;;;11.88;47.04;100186.63;4958116;28;45468;-61
2023/04/21 09:55:07;;;;;;;;;20.00;19.25;;;;;11.91;48.00;100193.53;4957644;28;45391;-61
2023/04/21 09:57:37;;;;;;;;;19.50;19.50;;;;;11.90;46.07;100184.78;4957877;28;45451;-61
2023/04/21 10:00:08;;;;;;;;;19.00;17.25;;;;;11.94;47.03;100190.75;4958079;28;45474;-60
2023/04/21 10:02:35;;;;;;;;;20.75;20.75;;;;;11.96;46.72;100182.78;4957682;28;45442;-61
2023/04/21 10:05:03;;;;;;;;;26.25;24.00;;;;;11.99;47.69;100182.63;4957667;28;45517;-60
2023/04/21 10:07:29;;;;;;;;;28.50;25.25;;;;;12.03;47.79;100179.75;4958050;28;45426;-61
2023/04/21 10:09:56;;;;;;;;;24.75;21.25;;;;;12.09;48.00;100182.09;4957998;28;45490;-59
2023/04/21 10:12:23;;;;;;;;;22.75;22.75;;;;;12.14;47.21;100174.84;4957792;28;46296;-60
2023/04/21 10:14:52;;;;;;;;;19.25;19.25;;;;;12.15;47.90;100168.63;4957764;28;45538;-61
2023/04/21 10:17:22;;;;;;;;;18.00;17.00;;;;;12.24;47.61;100174.38;4957713;28;45503;-61
2023/04/21 10:19:53;;;;;;;;;21.75;21.75;;;;;12.26;46.62;100177.78;4957647;28;45376;-61
2023/04/21 10:22:34;;;;;;;;;21.00;20.00;;;;;12.30;46.35;100169.63;4957409;28;45432;-62
2023/04/21 10:25:02;;;;;;;;;26.25;26.25;;;;;12.30;46.24;100172.28;4957311;28;45472;-61
2023/04/21 10:27:44;;;;;;;;;25.25;22.50;;;;;12.32;46.79;100164.31;4956311;28;45455;-63
2023/04/21 10:30:21;;;;;;;;;49.50;41.75;;;;;12.36;46.68;100158.81;4957438;28;45439;-62
2023/04/21 10:32:47;;;;;;;;;19.50;18.00;;;;;12.37;45.95;100157.88;4957299;28;46214;-62
2023/04/21 10:35:15;;;;;;;;;22.00;20.50;;;;;12.42;47.04;100157.66;4955987;28;45940;-63
2023/04/21 10:37:41;;;;;;;;;19.25;19.25;;;;;12.44;45.34;100166.34;4957496;28;45362;-62
2023/04/21 10:40:29;;;;;;;;;19.50;18.25;;;;;12.41;46.49;100163.81;4955786;28;45457;-63
2023/04/21 10:42:55;;;;;;;;;24.25;21.25;;;;;12.39;45.37;100160.44;4957385;28;45561;-63
2023/04/21 10:45:24;;;;;;;;;22.00;19.25;;;;;12.38;45.50;100158.72;4957401;28;45487;-61
2023/04/21 10:47:51;;;;;;;;;20.00;17.00;;;;;12.39;44.91;100152.53;4957500;28;45404;-62
2023/04/21 10:50:21;;;;;;;;;24.75;22.75;;;;;12.39;44.76;100149.88;4957141;28;45439;-62
2023/04/21 10:53:05;;;;;;;;;18.50;17.50;;;;;12.40;45.43;100151.59;4957279;28;46116;-62
2023/04/21 10:55:30;;;;;;;;;21.50;20.75;;;;;12.38;44.94;100143.78;4957257;28;45498;-62
2023/04/21 10:57:57;;;;;;;;;21.33;19.00;;;;;12.37;44.33;100147.31;4957130;28;45498;-62
2023/04/21 11:00:24;;;;;;;;;24.00;24.00;;;;;12.37;44.38;100143.84;4957104;28;45464;-62
2023/04/21 11:03:07;;;;;;;;;24.50;21.75;;;;;12.42;45.78;100146.25;4956904;28;46184;-62
2023/04/21 11:05:40;;;;;;;;;22.25;19.75;;;;;12.37;45.03;100131.50;4956868;28;45541;-62